Time;durP1;ratioP1;P1;durP2;ratioP2;P2;SDS_P1;SDS_P2;PMS_P1;PMS_P2;Temp;Humidity;BMP_temperature;BMP_pressure;BME280_temperature;BME280_humidity;BME280_pressure;Samples;Min_cycle;Max_cycle;Signal;HPM_P1;HPM_P2
2021/05/08 00:00:21;;;;;;;4.63;3.08;;;6.10;74.30;;;;;;2080075;28;20032;-83
2021/05/08 00:01:22;;;;;;;4.72;2.92;;;6.10;74.20;;;;;;2083772;28;20056;-83
2021/05/08 00:02:22;;;;;;;5.18;3.00;;;6.20;74.30;;;;;;2072209;28;20026;-83
2021/05/08 00:03:23;;;;;;;4.70;3.10;;;6.20;74.30;;;;;;2083703;28;20392;-83
2021/05/08 00:04:24;;;;;;;6.13;3.40;;;6.10;74.20;;;;;;2092216;28;20029;-83
2021/05/08 00:05:25;;;;;;;4.30;2.95;;;6.10;74.30;;;;;;2082752;28;20403;-83
2021/05/08 00:06:26;;;;;;;4.88;3.28;;;6.20;74.30;;;;;;2081116;28;20025;-83
2021/05/08 00:07:27;;;;;;;4.88;3.17;;;6.20;74.40;;;;;;2079461;28;20173;-83
2021/05/08 00:08:28;;;;;;;4.90;3.10;;;6.20;74.40;;;;;;2081266;28;20053;-83
2021/05/08 00:09:29;;;;;;;6.00;3.58;;;6.20;74.40;;;;;;2087955;28;20033;-83
2021/05/08 00:10:29;;;;;;;5.35;3.10;;;6.20;74.40;;;;;;2066619;28;20035;-83
2021/05/08 00:11:30;;;;;;;5.38;3.13;;;6.10;74.40;;;;;;2062228;28;20595;-83
2021/05/08 00:12:31;;;;;;;6.40;3.30;;;6.10;74.40;;;;;;2064687;28;20057;-82
2021/05/08 00:13:32;;;;;;;5.57;3.47;;;6.20;74.50;;;;;;2082283;28;20390;-82
2021/05/08 00:14:33;;;;;;;5.68;3.38;;;6.10;74.50;;;;;;2078573;28;20120;-83
2021/05/08 00:15:33;;;;;;;5.72;3.40;;;6.10;74.60;;;;;;2080603;28;20034;-83
2021/05/08 00:16:35;;;;;;;5.68;3.13;;;6.10;74.60;;;;;;2074576;28;20037;-83
2021/05/08 00:17:35;;;;;;;5.00;3.10;;;6.10;74.60;;;;;;2086528;28;20029;-83
2021/05/08 00:18:36;;;;;;;6.55;3.30;;;6.10;74.70;;;;;;2090116;28;20084;-83
2021/05/08 00:19:37;;;;;;;5.88;3.20;;;6.10;74.70;;;;;;2073037;28;20022;-83
2021/05/08 00:20:37;;;;;;;5.93;3.70;;;6.10;74.70;;;;;;2061518;28;20121;-83
2021/05/08 00:21:38;;;;;;;4.72;3.13;;;6.00;74.70;;;;;;2065050;28;20093;-83
2021/05/08 00:22:39;;;;;;;5.80;3.20;;;6.00;74.80;;;;;;2066197;28;20488;-83
2021/05/08 00:23:40;;;;;;;4.78;3.08;;;6.00;74.90;;;;;;2088916;28;20025;-82
2021/05/08 00:24:40;;;;;;;6.07;3.45;;;6.00;75.00;;;;;;2076183;28;20124;-83
2021/05/08 00:25:41;;;;;;;5.45;3.30;;;6.00;75.00;;;;;;2083852;28;20440;-82
2021/05/08 00:26:42;;;;;;;5.60;3.38;;;6.00;75.00;;;;;;2083608;28;20056;-82
2021/05/08 00:27:42;;;;;;;5.80;3.75;;;6.00;75.10;;;;;;2070355;28;20033;-82
2021/05/08 00:28:43;;;;;;;5.20;3.17;;;6.00;75.10;;;;;;2072655;28;20504;-83
2021/05/08 00:29:44;;;;;;;5.03;3.40;;;6.00;75.10;;;;;;2065167;28;20480;-82
2021/05/08 00:30:44;;;;;;;6.32;3.20;;;6.00;75.10;;;;;;2075925;28;20479;-83
2021/05/08 00:31:45;;;;;;;5.05;3.10;;;6.00;75.10;;;;;;2074877;28;20030;-82
2021/05/08 00:32:45;;;;;;;5.35;3.28;;;6.10;75.10;;;;;;2080561;28;20049;-83
2021/05/08 00:33:46;;;;;;;5.28;3.03;;;6.00;75.10;;;;;;2080091;28;20030;-82
2021/05/08 00:34:47;;;;;;;5.35;3.20;;;6.00;75.20;;;;;;2055509;28;20508;-83
2021/05/08 00:35:47;;;;;;;4.90;2.88;;;6.00;75.30;;;;;;2064175;28;20034;-83
2021/05/08 00:36:48;;;;;;;4.35;3.05;;;5.90;75.30;;;;;;2060071;28;20504;-83
2021/05/08 00:37:49;;;;;;;5.32;3.10;;;5.90;75.40;;;;;;2072706;28;20033;-82
2021/05/08 00:38:49;;;;;;;6.32;3.15;;;5.90;75.50;;;;;;2070529;28;20492;-82
2021/05/08 00:39:51;;;;;;;5.35;3.50;;;5.90;75.50;;;;;;2068990;28;20480;-82
2021/05/08 00:40:51;;;;;;;5.38;3.22;;;5.90;75.60;;;;;;2076312;28;20040;-83
2021/05/08 00:41:52;;;;;;;4.95;3.20;;;5.90;75.60;;;;;;2067711;28;20492;-83
2021/05/08 00:42:52;;;;;;;5.82;3.50;;;5.90;75.60;;;;;;2072324;28;20117;-83
2021/05/08 00:43:57;;;;;;;5.28;3.42;;;5.90;75.60;;;;;;2056160;28;20081;-83
2021/05/08 00:44:58;;;;;;;5.10;3.30;;;5.90;75.60;;;;;;2079292;28;20495;-83
2021/05/08 00:45:59;;;;;;;5.57;3.50;;;5.80;75.60;;;;;;2083352;28;20060;-83
2021/05/08 00:47:00;;;;;;;5.43;3.38;;;5.80;75.70;;;;;;2075742;28;20067;-83
2021/05/08 00:48:06;;;;;;;5.95;3.75;;;5.80;76.40;;;;;;2080514;28;20029;-83
2021/05/08 00:49:07;;;;;;;6.10;3.15;;;5.80;75.90;;;;;;2080961;28;20033;-83
2021/05/08 00:50:10;;;;;;;5.97;3.65;;;5.80;75.90;;;;;;2088775;28;20416;-83
2021/05/08 00:51:11;;;;;;;6.63;3.55;;;5.70;75.90;;;;;;2073853;28;20025;-83
2021/05/08 00:52:13;;;;;;;5.25;3.13;;;5.80;76.00;;;;;;2079882;28;20029;-83
2021/05/08 00:53:14;;;;;;;6.95;3.45;;;5.70;76.00;;;;;;2078182;28;20032;-83
2021/05/08 00:54:14;;;;;;;4.85;3.25;;;5.70;76.00;;;;;;2084406;28;20506;-83
2021/05/08 00:55:15;;;;;;;5.78;3.50;;;5.70;76.10;;;;;;2096330;28;20120;-82
2021/05/08 00:56:16;;;;;;;5.93;3.63;;;5.70;76.20;;;;;;2071720;28;20050;-83
2021/05/08 00:57:17;;;;;;;6.68;3.72;;;5.70;76.20;;;;;;2071393;28;20496;-83
2021/05/08 00:58:18;;;;;;;5.40;3.30;;;5.70;76.20;;;;;;2068138;28;20030;-83
2021/05/08 00:59:20;;;;;;;5.00;3.30;;;5.80;76.40;;;;;;2064509;28;20434;-83
2021/05/08 01:00:22;;;;;;;5.50;3.17;;;5.80;76.40;;;;;;2072635;28;20026;-83
2021/05/08 01:01:23;;;;;;;6.88;3.80;;;5.70;76.30;;;;;;2080720;28;20029;-83
2021/05/08 01:02:24;;;;;;;5.70;3.40;;;5.80;76.30;;;;;;2085623;28;20025;-83
2021/05/08 01:03:25;;;;;;;6.18;3.83;;;5.80;76.30;;;;;;2082178;28;20064;-83
2021/05/08 01:04:26;;;;;;;5.38;3.45;;;5.80;76.30;;;;;;2072078;28;20037;-83
2021/05/08 01:05:30;;;;;;;5.40;3.50;;;5.80;76.30;;;;;;2072211;28;20122;-83
2021/05/08 01:06:33;;;;;;;5.60;3.40;;;5.80;76.30;;;;;;2078830;28;20048;-83
2021/05/08 01:07:37;;;;;;;6.05;3.70;;;5.90;76.30;;;;;;2078874;28;20530;-83
2021/05/08 01:08:38;;;;;;;6.20;3.33;;;5.90;76.90;;;;;;2073285;28;20447;-83
2021/05/08 01:09:41;;;;;;;4.88;3.28;;;5.80;76.20;;;;;;2077801;28;20024;-83
2021/05/08 01:10:42;;;;;;;6.03;3.72;;;5.90;76.30;;;;;;2083619;28;20093;-82
2021/05/08 01:11:43;;;;;;;5.22;3.47;;;5.90;76.30;;;;;;2085302;28;20059;-84
2021/05/08 01:12:43;;;;;;;6.15;3.42;;;5.80;76.20;;;;;;2083499;28;20144;-83
2021/05/08 01:13:44;;;;;;;5.00;3.28;;;5.90;76.30;;;;;;2067695;28;20065;-83
2021/05/08 01:14:46;;;;;;;4.70;3.40;;;5.80;76.30;;;;;;2075608;28;20071;-83
2021/05/08 01:15:46;;;;;;;6.28;3.88;;;5.80;76.30;;;;;;2071410;28;20583;-83
2021/05/08 01:16:47;;;;;;;5.30;3.60;;;5.80;76.90;;;;;;2070065;28;20038;-84
2021/05/08 01:17:48;;;;;;;5.78;3.55;;;5.80;76.40;;;;;;2079767;28;20022;-84
2021/05/08 01:18:51;;;;;;;6.88;4.03;;;5.80;76.40;;;;;;2066919;28;20512;-83
2021/05/08 01:19:52;;;;;;;6.57;4.13;;;5.70;76.50;;;;;;2068616;28;20038;-84
2021/05/08 01:20:53;;;;;;;6.63;4.15;;;5.70;76.60;;;;;;2068472;28;20121;-83
2021/05/08 01:21:54;;;;;;;5.72;3.90;;;5.70;76.70;;;;;;2064428;28;20046;-84
2021/05/08 01:22:55;;;;;;;5.32;4.00;;;5.70;76.80;;;;;;2067158;28;20029;-83
2021/05/08 01:23:55;;;;;;;5.97;4.03;;;5.60;76.80;;;;;;2077712;28;20156;-84
2021/05/08 01:24:56;;;;;;;6.07;4.30;;;5.60;77.00;;;;;;2079828;28;20594;-83
2021/05/08 01:25:57;;;;;;;6.88;4.20;;;5.60;77.00;;;;;;2080143;28;20044;-83
2021/05/08 01:26:57;;;;;;;6.05;3.83;;;5.60;77.80;;;;;;2069771;28;20045;-83
2021/05/08 01:28:00;;;;;;;6.30;4.20;;;5.50;77.20;;;;;;2071231;28;20034;-83
2021/05/08 01:29:01;;;;;;;7.20;4.03;;;5.50;77.30;;;;;;2069102;28;20101;-83
2021/05/08 01:30:02;;;;;;;8.80;3.80;;;5.50;77.30;;;;;;2094235;28;20782;-83
2021/05/08 01:31:02;;;;;;;6.97;4.10;;;5.50;77.40;;;;;;2084908;28;20530;-84
2021/05/08 01:32:04;;;;;;;6.00;3.83;;;5.50;77.40;;;;;;2066780;28;20034;-83
2021/05/08 01:33:05;;;;;;;6.47;4.00;;;5.50;77.50;;;;;;2082688;28;20036;-83
2021/05/08 01:34:06;;;;;;;6.35;3.97;;;5.50;77.50;;;;;;2071896;28;20080;-83
2021/05/08 01:35:07;;;;;;;5.95;4.30;;;5.50;77.50;;;;;;2072003;28;20030;-84
2021/05/08 01:36:08;;;;;;;5.82;3.97;;;5.50;77.60;;;;;;2080036;28;20130;-83
2021/05/08 01:37:09;;;;;;;6.13;4.00;;;5.50;77.70;;;;;;2071175;28;20511;-83
2021/05/08 01:38:09;;;;;;;6.75;4.40;;;5.50;77.70;;;;;;2079941;28;20064;-84
2021/05/08 01:39:10;;;;;;;7.13;3.97;;;5.50;77.80;;;;;;2066440;28;20052;-83
2021/05/08 01:40:12;;;;;;;6.32;3.97;;;5.50;77.80;;;;;;2069847;28;20445;-83
2021/05/08 01:41:13;;;;;;;6.60;4.00;;;5.50;77.80;;;;;;2069556;28;20034;-83
2021/05/08 01:42:14;;;;;;;7.43;4.40;;;5.50;77.80;;;;;;2070927;28;20025;-84
2021/05/08 01:43:14;;;;;;;5.90;4.05;;;5.50;77.90;;;;;;2065938;28;20041;-83
2021/05/08 01:44:15;;;;;;;6.47;4.25;;;5.40;77.80;;;;;;2078525;28;20022;-83
2021/05/08 01:45:18;;;;;;;6.20;4.53;;;5.40;77.90;;;;;;2071112;28;20504;-83
2021/05/08 01:46:18;;;;;;;7.55;4.97;;;5.40;78.00;;;;;;2070760;28;20161;-83
2021/05/08 01:47:19;;;;;;;6.20;4.22;;;5.40;78.60;;;;;;2070987;28;20021;-83
2021/05/08 01:48:20;;;;;;;5.75;4.05;;;5.40;78.00;;;;;;2072341;28;20385;-82
2021/05/08 01:49:20;;;;;;;7.25;4.72;;;5.40;78.10;;;;;;2061103;28;20555;-83
2021/05/08 01:50:23;;;;;;;7.28;4.47;;;5.50;78.20;;;;;;2063709;28;20114;-83
2021/05/08 01:51:24;;;;;;;6.60;4.60;;;5.50;78.10;;;;;;2065182;28;20023;-83
2021/05/08 01:52:24;;;;;;;6.88;4.43;;;5.40;78.10;;;;;;2088427;28;20308;-83
2021/05/08 01:53:25;;;;;;;6.32;4.50;;;5.50;78.10;;;;;;2094662;28;20437;-83
2021/05/08 01:54:26;;;;;;;6.75;4.10;;;5.50;78.10;;;;;;2083819;28;20434;-83
2021/05/08 01:55:28;;;;;;;6.05;4.15;;;5.50;78.10;;;;;;2076085;28;20022;-83
2021/05/08 01:56:29;;;;;;;6.68;4.28;;;5.50;78.10;;;;;;2083738;28;20027;-83
2021/05/08 01:57:30;;;;;;;6.95;4.75;;;5.50;78.10;;;;;;2086545;28;20051;-83
2021/05/08 01:58:30;;;;;;;6.53;4.25;;;5.50;78.10;;;;;;2082594;28;20025;-83
2021/05/08 01:59:31;;;;;;;6.35;4.25;;;5.50;78.20;;;;;;2070088;28;20034;-83
2021/05/08 02:00:43;;;;;;;6.20;4.25;;;5.50;78.80;;;;;;2050151;28;20031;-83
2021/05/08 02:01:44;;;;;;;6.90;4.60;;;5.50;78.20;;;;;;2080394;28;20567;-83
2021/05/08 02:02:45;;;;;;;5.55;4.22;;;5.50;78.20;;;;;;2083585;28;20029;-84
2021/05/08 02:03:46;;;;;;;6.45;4.32;;;5.50;78.30;;;;;;2084359;28;20021;-83
2021/05/08 02:04:47;;;;;;;6.78;4.55;;;5.40;78.30;;;;;;2081201;28;20044;-83
2021/05/08 02:05:48;;;;;;;7.05;4.63;;;5.50;78.30;;;;;;2078089;28;20053;-83
2021/05/08 02:06:53;;;;;;;7.22;4.50;;;5.50;78.30;;;;;;2073220;28;20030;-83
2021/05/08 02:07:53;;;;;;;5.60;4.22;;;5.50;78.30;;;;;;2079742;28;20116;-82
2021/05/08 02:08:54;;;;;;;6.00;4.10;;;5.50;78.30;;;;;;2085663;28;20036;-82
2021/05/08 02:09:54;;;;;;;6.97;4.82;;;5.50;78.30;;;;;;2084990;28;20029;-83
2021/05/08 02:10:55;;;;;;;6.32;4.18;;;5.50;78.30;;;;;;2077172;28;20030;-83
2021/05/08 02:11:56;;;;;;;6.50;4.38;;;5.50;78.30;;;;;;2070650;28;20030;-82
2021/05/08 02:13:01;;;;;;;8.13;4.70;;;5.50;78.30;;;;;;2067868;28;20056;-82
2021/05/08 02:14:02;;;;;;;6.93;4.53;;;5.50;78.30;;;;;;2085697;28;20095;-83
2021/05/08 02:15:03;;;;;;;6.28;4.30;;;5.50;78.20;;;;;;2076646;28;20419;-83
2021/05/08 02:16:04;;;;;;;6.72;4.30;;;5.50;78.30;;;;;;2082985;28;20063;-83
2021/05/08 02:17:05;;;;;;;6.25;4.13;;;5.50;78.20;;;;;;2086736;28;20041;-83
2021/05/08 02:18:07;;;;;;;7.05;4.95;;;5.50;78.30;;;;;;2071948;28;20022;-83
2021/05/08 02:19:07;;;;;;;6.03;4.32;;;5.50;78.30;;;;;;2073569;28;20036;-83
2021/05/08 02:20:11;;;;;;;5.60;4.22;;;5.50;78.30;;;;;;2075808;28;20511;-83
2021/05/08 02:21:11;;;;;;;6.55;4.50;;;5.60;78.40;;;;;;2067881;28;20029;-84
2021/05/08 02:22:12;;;;;;;6.47;4.47;;;5.50;78.30;;;;;;2079717;28;20057;-83
2021/05/08 02:23:15;;;;;;;5.82;4.32;;;5.60;78.40;;;;;;2084554;28;20025;-83
2021/05/08 02:24:15;;;;;;;6.88;4.50;;;5.60;78.30;;;;;;2063693;28;20026;-83
2021/05/08 02:25:17;;;;;;;6.43;4.25;;;5.60;78.30;;;;;;2060892;28;20110;-82
2021/05/08 02:26:17;;;;;;;6.60;4.68;;;5.60;78.20;;;;;;2075916;28;20021;-83
2021/05/08 02:27:19;;;;;;;6.43;4.55;;;5.60;78.20;;;;;;2079948;28;20087;-82
2021/05/08 02:28:19;;;;;;;6.05;4.18;;;5.70;78.30;;;;;;2054951;28;20117;-82
2021/05/08 02:29:20;;;;;;;6.65;4.85;;;5.70;78.20;;;;;;2071511;28;20030;-83
2021/05/08 02:30:27;;;;;;;7.53;4.82;;;5.70;78.20;;;;;;2085110;28;20036;-82
2021/05/08 02:31:28;;;;;;;6.50;4.30;;;5.70;78.20;;;;;;2079678;28;20023;-82
2021/05/08 02:32:29;;;;;;;8.80;4.80;;;5.70;78.10;;;;;;2083974;28;20029;-82
2021/05/08 02:33:29;;;;;;;6.95;4.57;;;5.80;78.20;;;;;;2069964;28;20088;-83
2021/05/08 02:34:30;;;;;;;6.50;4.68;;;5.80;78.10;;;;;;2063535;28;20034;-83
2021/05/08 02:35:32;;;;;;;6.93;4.57;;;5.80;78.10;;;;;;2077092;28;20030;-83
2021/05/08 02:36:32;;;;;;;6.50;4.78;;;5.80;78.10;;;;;;2066175;28;20050;-83
2021/05/08 02:37:33;;;;;;;6.15;4.43;;;5.80;78.10;;;;;;2070100;28;20084;-82
2021/05/08 02:38:34;;;;;;;7.15;4.97;;;5.80;78.70;;;;;;2065064;28;20026;-82
2021/05/08 02:39:34;;;;;;;6.07;4.50;;;5.80;78.10;;;;;;2067083;28;20049;-83
2021/05/08 02:40:37;;;;;;;7.75;4.75;;;5.80;78.00;;;;;;2075875;28;20030;-82
2021/05/08 02:41:38;;;;;;;6.38;4.70;;;5.90;78.10;;;;;;2088817;28;20013;-83
2021/05/08 02:42:39;;;;;;;7.13;4.70;;;5.90;78.10;;;;;;2087476;28;20033;-82
2021/05/08 02:43:40;;;;;;;7.53;4.90;;;5.90;78.00;;;;;;2078864;28;20026;-83
2021/05/08 02:44:40;;;;;;;7.05;4.90;;;5.90;78.00;;;;;;2076079;28;20137;-83
2021/05/08 02:45:41;;;;;;;7.47;4.75;;;5.90;78.00;;;;;;2071397;28;20108;-83
2021/05/08 02:46:42;;;;;;;6.72;4.72;;;5.90;78.00;;;;;;2069283;28;20033;-83
2021/05/08 02:47:45;;;;;;;6.85;4.53;;;5.90;78.00;;;;;;2075480;28;20057;-83
2021/05/08 02:48:46;;;;;;;6.68;4.63;;;5.90;78.10;;;;;;2085908;28;20025;-82
2021/05/08 02:49:47;;;;;;;8.80;5.05;;;5.90;78.00;;;;;;2077001;28;21821;-83
2021/05/08 02:50:48;;;;;;;6.50;4.43;;;5.90;78.10;;;;;;2071290;28;20074;-83
2021/05/08 02:51:49;;;;;;;7.10;5.05;;;6.00;78.10;;;;;;2088011;28;20136;-83
2021/05/08 02:52:49;;;;;;;7.05;4.82;;;5.90;78.00;;;;;;2089533;28;21409;-83
2021/05/08 02:53:50;;;;;;;8.02;5.10;;;5.90;78.00;;;;;;2079065;28;20027;-83
2021/05/08 02:54:51;;;;;;;7.10;5.00;;;6.00;78.10;;;;;;2071924;28;20587;-83
2021/05/08 02:55:51;;;;;;;6.82;5.00;;;6.00;78.10;;;;;;2081096;28;20093;-83
2021/05/08 02:56:52;;;;;;;7.28;5.05;;;5.90;78.00;;;;;;2064728;28;20444;-82
2021/05/08 02:57:52;;;;;;;7.80;4.75;;;5.90;78.00;;;;;;2056459;28;20113;-83
2021/05/08 02:58:53;;;;;;;6.68;4.70;;;6.00;78.10;;;;;;2073506;28;20022;-83
2021/05/08 02:59:54;;;;;;;6.97;5.05;;;6.00;78.10;;;;;;2072723;28;20108;-83
2021/05/08 03:00:54;;;;;;;6.25;4.65;;;6.00;78.10;;;;;;2071890;28;20519;-83
2021/05/08 03:01:55;;;;;;;7.82;4.93;;;6.00;78.10;;;;;;2069430;28;20038;-82
2021/05/08 03:02:55;;;;;;;7.93;5.10;;;6.00;78.10;;;;;;2074110;28;20014;-83
2021/05/08 03:03:56;;;;;;;6.65;4.88;;;6.00;78.10;;;;;;2088405;28;20057;-83
2021/05/08 03:04:57;;;;;;;6.25;4.60;;;6.00;78.00;;;;;;2088945;28;20045;-82
2021/05/08 03:05:57;;;;;;;6.30;4.40;;;6.00;78.00;;;;;;2076659;28;20033;-83
2021/05/08 03:07:01;;;;;;;6.40;4.65;;;6.00;78.00;;;;;;2064726;28;20022;-83
2021/05/08 03:08:02;;;;;;;6.53;4.57;;;6.00;78.00;;;;;;2081490;28;20033;-83
2021/05/08 03:09:02;;;;;;;6.30;4.40;;;6.00;78.00;;;;;;2081498;28;20028;-83
2021/05/08 03:10:06;;;;;;;6.70;4.95;;;6.00;78.00;;;;;;2073173;28;20496;-83
2021/05/08 03:11:06;;;;;;;5.82;4.72;;;6.00;78.00;;;;;;2075916;28;20029;-84
2021/05/08 03:12:08;;;;;;;8.70;5.20;;;6.00;77.90;;;;;;2080195;28;20025;-83
2021/05/08 03:13:08;;;;;;;7.47;4.72;;;6.00;78.00;;;;;;2078873;28;20504;-84
2021/05/08 03:14:09;;;;;;;7.00;4.70;;;6.00;78.00;;;;;;2077702;28;20116;-82
2021/05/08 03:15:10;;;;;;;6.43;4.88;;;6.00;78.00;;;;;;2072778;28;20022;-83
2021/05/08 03:16:11;;;;;;;7.50;4.95;;;6.00;78.10;;;;;;2078652;28;20041;-83
2021/05/08 03:17:12;;;;;;;7.22;5.05;;;6.00;78.00;;;;;;2082969;28;20044;-83
2021/05/08 03:18:12;;;;;;;7.38;5.05;;;6.00;78.00;;;;;;2069840;28;20117;-84
2021/05/08 03:19:13;;;;;;;7.47;5.20;;;6.00;78.00;;;;;;2073273;28;20038;-83
2021/05/08 03:20:14;;;;;;;7.35;5.38;;;6.00;77.90;;;;;;2083617;28;20117;-83
2021/05/08 03:21:15;;;;;;;7.55;5.20;;;6.00;78.00;;;;;;2081077;28;20033;-82
2021/05/08 03:22:15;;;;;;;7.68;5.50;;;6.00;77.90;;;;;;2076266;28;20595;-83
2021/05/08 03:23:16;;;;;;;9.00;6.10;;;6.00;78.00;;;;;;2081305;28;20060;-83
2021/05/08 03:24:17;;;;;;;8.18;5.03;;;6.00;77.90;;;;;;2072963;28;24092;-83
2021/05/08 03:25:18;;;;;;;6.80;5.10;;;6.00;77.90;;;;;;2072466;28;20036;-83
2021/05/08 03:26:18;;;;;;;6.95;4.78;;;6.00;77.90;;;;;;2074234;28;20018;-83
2021/05/08 03:27:19;;;;;;;7.82;5.32;;;6.00;78.00;;;;;;2080555;28;20075;-84
2021/05/08 03:28:19;;;;;;;6.53;4.70;;;6.00;78.00;;;;;;2076747;28;20029;-83
2021/05/08 03:29:20;;;;;;;6.55;4.78;;;6.00;77.90;;;;;;2076629;28;20440;-83
2021/05/08 03:30:21;;;;;;;6.43;4.72;;;6.00;78.00;;;;;;2072343;28;20100;-83
2021/05/08 03:31:22;;;;;;;6.65;4.60;;;6.00;78.00;;;;;;2072444;28;20567;-83
2021/05/08 03:32:22;;;;;;;6.72;4.70;;;6.00;78.00;;;;;;2073012;28;20062;-84
2021/05/08 03:33:23;;;;;;;7.15;5.10;;;6.00;78.00;;;;;;2064996;28;20034;-83
2021/05/08 03:34:24;;;;;;;7.05;4.93;;;6.00;78.10;;;;;;2074880;28;20057;-83
2021/05/08 03:35:24;;;;;;;6.90;5.07;;;6.00;78.10;;;;;;2077119;28;20022;-84
2021/05/08 03:36:25;;;;;;;7.15;5.40;;;5.90;78.00;;;;;;2062189;28;20084;-83
2021/05/08 03:37:26;;;;;;;8.07;5.05;;;5.90;78.00;;;;;;2072585;28;20077;-82
2021/05/08 03:38:26;;;;;;;6.63;4.90;;;5.90;78.00;;;;;;2062303;28;20031;-82
2021/05/08 03:39:27;;;;;;;6.75;5.18;;;5.90;78.00;;;;;;2061565;28;20143;-83
2021/05/08 03:40:28;;;;;;;7.78;5.10;;;5.90;78.00;;;;;;2061673;28;20030;-82
2021/05/08 03:41:28;;;;;;;6.85;4.65;;;6.00;78.10;;;;;;2070182;28;20034;-82
2021/05/08 03:42:29;;;;;;;7.55;5.15;;;5.90;78.00;;;;;;2064939;28;20030;-83
2021/05/08 03:43:30;;;;;;;7.50;5.20;;;6.00;78.00;;;;;;2076308;28;20073;-83
2021/05/08 03:44:30;;;;;;;7.45;5.43;;;5.90;78.00;;;;;;2076597;28;20030;-83
2021/05/08 03:45:31;;;;;;;7.45;5.20;;;5.90;78.00;;;;;;2071131;28;20033;-83
2021/05/08 03:46:31;;;;;;;7.78;5.10;;;5.90;78.00;;;;;;2064531;28;20030;-82
2021/05/08 03:47:32;;;;;;;7.55;5.43;;;5.90;78.00;;;;;;2065174;28;20097;-83
2021/05/08 03:48:33;;;;;;;6.95;5.00;;;5.90;78.00;;;;;;2076339;28;20029;-83
2021/05/08 03:49:33;;;;;;;6.97;4.85;;;6.00;78.00;;;;;;2071027;28;20445;-83
2021/05/08 03:50:34;;;;;;;7.05;5.18;;;6.00;78.00;;;;;;2067690;28;20021;-82
2021/05/08 03:51:35;;;;;;;7.38;5.20;;;6.00;78.00;;;;;;2071448;28;20040;-82
2021/05/08 03:52:36;;;;;;;7.68;5.13;;;6.00;77.90;;;;;;2064384;28;20026;-82
2021/05/08 03:53:36;;;;;;;8.25;4.85;;;6.00;78.00;;;;;;2061878;28;20033;-83
2021/05/08 03:54:37;;;;;;;7.35;5.50;;;6.00;78.00;;;;;;2064574;28;20415;-82
2021/05/08 03:55:39;;;;;;;7.55;5.30;;;6.00;77.90;;;;;;2070893;28;20030;-83
2021/05/08 03:56:40;;;;;;;7.20;5.30;;;6.00;77.90;;;;;;2084263;28;20124;-83
2021/05/08 03:57:41;;;;;;;7.97;5.03;;;6.00;77.90;;;;;;2075849;28;20033;-83
2021/05/08 03:58:41;;;;;;;7.22;5.10;;;6.00;77.90;;;;;;2080762;28;20033;-83
2021/05/08 03:59:42;;;;;;;8.23;5.57;;;6.00;77.90;;;;;;2082883;28;20024;-83
2021/05/08 04:00:43;;;;;;;7.10;5.30;;;6.00;78.00;;;;;;2084359;28;20184;-83
2021/05/08 04:01:43;;;;;;;8.00;5.40;;;6.00;78.00;;;;;;2061969;28;20035;-82
2021/05/08 04:02:44;;;;;;;7.35;4.95;;;6.00;78.00;;;;;;2068354;28;20157;-83
2021/05/08 04:03:44;;;;;;;7.68;5.13;;;6.00;78.10;;;;;;2072417;28;20026;-83
2021/05/08 04:04:45;;;;;;;7.85;5.30;;;5.90;78.00;;;;;;2064802;28;20030;-82
2021/05/08 04:05:46;;;;;;;7.15;4.93;;;5.90;78.00;;;;;;2064056;28;20030;-82
2021/05/08 04:06:46;;;;;;;6.97;5.28;;;5.90;78.00;;;;;;2060825;28;20393;-83
2021/05/08 04:07:47;;;;;;;7.63;5.50;;;6.00;78.10;;;;;;2063183;28;20035;-83
2021/05/08 04:08:48;;;;;;;8.77;5.40;;;5.90;78.10;;;;;;2068832;28;20030;-83
2021/05/08 04:09:49;;;;;;;6.50;4.93;;;5.90;78.10;;;;;;2053116;28;20033;-82
2021/05/08 04:10:50;;;;;;;7.15;5.28;;;5.90;78.10;;;;;;2063996;28;20082;-82
2021/05/08 04:11:51;;;;;;;7.45;5.25;;;5.90;78.10;;;;;;2076913;28;20137;-81
2021/05/08 04:12:51;;;;;;;7.28;5.05;;;5.90;78.10;;;;;;2073668;28;20026;-83
2021/05/08 04:13:52;;;;;;;8.20;5.25;;;5.90;78.20;;;;;;2058025;28;21528;-83
2021/05/08 04:14:53;;;;;;;7.07;4.90;;;5.90;78.20;;;;;;2073253;28;20455;-83
2021/05/08 04:15:53;;;;;;;7.15;5.13;;;5.90;78.20;;;;;;2076172;28;20067;-83
2021/05/08 04:16:54;;;;;;;7.15;4.93;;;5.90;78.20;;;;;;2061444;28;20484;-83
2021/05/08 04:17:55;;;;;;;6.90;5.15;;;5.90;78.30;;;;;;2062483;28;20030;-83
2021/05/08 04:18:55;;;;;;;7.60;5.10;;;5.80;78.20;;;;;;2080129;28;20120;-82
2021/05/08 04:19:56;;;;;;;7.53;5.43;;;5.80;78.30;;;;;;2064918;28;20121;-83
2021/05/08 04:20:56;;;;;;;9.27;5.30;;;5.80;78.30;;;;;;2041953;29;20032;-83
2021/05/08 04:21:57;;;;;;;7.22;5.80;;;5.80;78.30;;;;;;2065154;28;20592;-82
2021/05/08 04:22:58;;;;;;;7.32;5.65;;;5.80;78.30;;;;;;2064912;28;20095;-83
2021/05/08 04:23:58;;;;;;;8.35;5.85;;;5.80;78.40;;;;;;2072436;28;20101;-83
2021/05/08 04:24:59;;;;;;;8.63;5.82;;;5.80;78.40;;;;;;2077872;28;20034;-83
2021/05/08 04:25:59;;;;;;;9.10;6.20;;;5.80;78.40;;;;;;2058212;28;20031;-83
2021/05/08 04:27:00;;;;;;;8.18;5.82;;;5.80;78.40;;;;;;2048721;28;20116;-82
2021/05/08 04:28:01;;;;;;;8.48;5.55;;;5.80;78.40;;;;;;2059802;28;20393;-82
2021/05/08 04:29:02;;;;;;;9.13;6.10;;;5.80;78.40;;;;;;2056522;28;20035;-82
2021/05/08 04:30:04;;;;;;;9.07;6.25;;;5.80;78.40;;;;;;2070894;28;20041;-83
2021/05/08 04:31:05;;;;;;;8.18;6.18;;;5.90;78.40;;;;;;2064422;28;20030;-83
2021/05/08 04:32:06;;;;;;;9.15;5.80;;;5.90;78.40;;;;;;2063918;28;20378;-82
2021/05/08 04:33:06;;;;;;;9.10;6.25;;;5.80;78.30;;;;;;2072927;28;20550;-82
2021/05/08 04:34:07;;;;;;;8.25;5.82;;;5.90;78.30;;;;;;2073449;28;20120;-82
2021/05/08 04:35:08;;;;;;;8.50;6.18;;;5.90;78.20;;;;;;2064938;28;20019;-83
2021/05/08 04:36:09;;;;;;;8.43;5.65;;;5.90;78.20;;;;;;2065460;28;20026;-82
2021/05/08 04:37:09;;;;;;;7.63;5.95;;;5.90;78.10;;;;;;2057188;28;20034;-83
2021/05/08 04:38:10;;;;;;;7.97;5.65;;;5.90;78.00;;;;;;2060409;28;20027;-82
2021/05/08 04:39:10;;;;;;;8.82;6.00;;;6.00;78.10;;;;;;2071506;28;20045;-82
2021/05/08 04:40:12;;;;;;;8.38;6.00;;;6.00;78.00;;;;;;2062391;28;20037;-82
2021/05/08 04:41:13;;;;;;;8.20;5.80;;;6.00;77.90;;;;;;2069278;28;20057;-83
2021/05/08 04:42:13;;;;;;;7.65;5.72;;;6.00;77.90;;;;;;2072882;28;20028;-83
2021/05/08 04:43:14;;;;;;;9.45;5.80;;;6.10;78.00;;;;;;2072596;28;20391;-83
2021/05/08 04:44:15;;;;;;;8.27;6.05;;;6.10;77.90;;;;;;2055675;28;20034;-82
2021/05/08 04:45:16;;;;;;;7.80;5.80;;;6.10;77.90;;;;;;2063333;28;20604;-82
2021/05/08 04:46:16;;;;;;;8.52;6.15;;;6.10;77.80;;;;;;2065430;28;20186;-83
2021/05/08 04:47:20;;;;;;;7.82;6.10;;;6.20;77.80;;;;;;2066540;28;20122;-83
2021/05/08 04:48:22;;;;;;;8.13;5.97;;;6.20;77.70;;;;;;2082189;28;20049;-81
2021/05/08 04:49:23;;;;;;;8.15;5.80;;;6.30;77.60;;;;;;2088700;28;20099;-82
2021/05/08 04:50:25;;;;;;;8.27;6.18;;;6.30;77.50;;;;;;2082422;28;20044;-82
2021/05/08 04:51:26;;;;;;;7.65;5.88;;;6.40;77.50;;;;;;2065200;28;20032;-81
2021/05/08 04:52:27;;;;;;;10.13;6.90;;;6.40;77.40;;;;;;2063758;28;20607;-82
2021/05/08 04:53:28;;;;;;;11.05;6.45;;;6.50;77.30;;;;;;2059823;28;20034;-82
2021/05/08 04:54:29;;;;;;;9.60;6.57;;;6.50;77.20;;;;;;2065503;28;20069;-83
2021/05/08 04:55:29;;;;;;;10.15;7.00;;;6.50;77.20;;;;;;2060883;28;20022;-82
2021/05/08 04:56:30;;;;;;;8.30;6.57;;;6.50;77.10;;;;;;2056430;28;20109;-83
2021/05/08 04:57:30;;;;;;;8.93;6.65;;;6.50;77.00;;;;;;2064092;28;20393;-83
2021/05/08 04:58:31;;;;;;;10.05;7.15;;;6.50;76.90;;;;;;2073368;28;20030;-82
2021/05/08 04:59:32;;;;;;;8.63;6.30;;;6.60;77.00;;;;;;2072368;28;20022;-82
2021/05/08 05:00:33;;;;;;;8.20;6.00;;;6.60;76.90;;;;;;2064986;28;20038;-82
2021/05/08 05:01:33;;;;;;;8.40;5.82;;;6.60;77.50;;;;;;2070304;28;20062;-82
2021/05/08 05:02:34;;;;;;;8.38;6.30;;;6.60;76.90;;;;;;2079141;28;20404;-82
2021/05/08 05:03:35;;;;;;;7.60;5.68;;;6.60;76.80;;;;;;2069062;28;20029;-82
2021/05/08 05:04:36;;;;;;;9.43;5.93;;;6.60;76.80;;;;;;2075526;28;20030;-82
2021/05/08 05:05:36;;;;;;;8.30;6.22;;;6.70;76.80;;;;;;2080244;28;20112;-82
2021/05/08 05:06:37;;;;;;;8.25;6.03;;;6.70;76.70;;;;;;2078819;28;20037;-82
2021/05/08 05:07:38;;;;;;;8.48;5.68;;;6.70;76.60;;;;;;2072255;28;20440;-83
2021/05/08 05:08:39;;;;;;;8.45;5.60;;;6.70;76.60;;;;;;2064025;28;20034;-82
2021/05/08 05:09:40;;;;;;;7.80;5.68;;;6.70;76.60;;;;;;2064375;28;20029;-82
2021/05/08 05:10:40;;;;;;;8.85;5.90;;;6.80;76.60;;;;;;2071966;28;20100;-82
2021/05/08 05:11:41;;;;;;;8.15;6.22;;;6.80;76.50;;;;;;2079711;28;20021;-82
2021/05/08 05:12:44;;;;;;;8.30;6.05;;;6.80;76.50;;;;;;2079929;28;20041;-82
2021/05/08 05:13:45;;;;;;;8.05;6.15;;;6.80;76.40;;;;;;2077702;28;20021;-82
2021/05/08 05:14:45;;;;;;;8.98;5.40;;;6.80;76.40;;;;;;2072199;28;20081;-82
2021/05/08 05:15:46;;;;;;;7.18;5.32;;;6.80;76.30;;;;;;2063954;28;20416;-82
2021/05/08 05:16:47;;;;;;;7.82;5.47;;;6.80;76.20;;;;;;2071958;28;20392;-82
2021/05/08 05:17:47;;;;;;;6.78;4.70;;;6.90;76.20;;;;;;2064082;28;20547;-82
2021/05/08 05:18:48;;;;;;;7.82;5.15;;;6.90;76.20;;;;;;2063173;28;20018;-82
2021/05/08 05:19:48;;;;;;;8.18;5.35;;;7.00;76.10;;;;;;2077618;28;20495;-82
2021/05/08 05:20:49;;;;;;;8.00;5.63;;;6.90;76.00;;;;;;2061341;28;20117;-82
2021/05/08 05:21:50;;;;;;;8.68;5.95;;;7.00;76.00;;;;;;2070533;28;20029;-83